OITK 
Khoy Airport
Khoy, Iran 
ICAOIATAStatus
OITKKHYOperational
LatitudeLongitude
38° 25' 39" N44° 58' 24" E
38.42750244.973598
Local Time (DST+5)UTC (GMT+4)
04-24-2014 06:35 am04-24-2014 02:05
Sunrise-SunsetLocalUTC
Begin Civil Twilight06:12 am01:42
Sunrise06:40 am02:10
Sunset08:16 pm15:46
End Civil Twilight08:44 pm16:14

Current Weather

METARObservedFlight Conditions

OITK 231000Z 33008KT 9999 SCT035TCU 21/M07 Q1012

Wed, Apr 23, 2014 @ 10:00 UTC(Z)

(16 Hours, 5 Minutes ago)

VFR

(Visual Flight Rules)

WindVisibilityCloudsConditions
330° at 8 knots (15 kph)
10 km or more
  • Scattered at 3,500' AGL
  • No significant weather
TemperaturesReadingsPrecipitation
Current Temp21°C (70°F)
Dewpoint-7°C (19°F)
Humidity15%
Altimeter29.88"Hg
Sea Level Pressure1012mb
Field Elevation3631.89'
None Recorded

Additional weather within a 92.6km radius of OITK

Location METAR
OITR

84.8km S (174°)

1 hour, 5 minutes ago
VFR VFR    MVFR MVFR    IFR IFR    LIFR LIFR    Unknown Unknown

Previous 24 hour Weather Graphs

  Loading...

CheckWX.com is intended as a tool to help pilots better visualize weather data.   It is not intended as a substitute for an official weather briefing obtained from a Flight Service Station.
CheckWX.com does not meet the FAA requirements for an official pre-flight weather briefing.   Therefore, it's important that pilots still call and obtain an official FSS pre-flight weather briefing.